sensor_id;sensor_type;location;lat;lon;timestamp;P1;durP1;ratioP1;P2;durP2;ratioP2
12052;SDS011;6087;48.982;12.064;2023-12-04T00:01:27;13.43;;;8.83;;
12052;SDS011;6087;48.982;12.064;2023-12-04T00:03:54;14.57;;;8.27;;
12052;SDS011;6087;48.982;12.064;2023-12-04T00:06:23;16.73;;;9.27;;
12052;SDS011;6087;48.982;12.064;2023-12-04T00:08:50;14.60;;;10.03;;
12052;SDS011;6087;48.982;12.064;2023-12-04T00:11:17;16.53;;;8.80;;
12052;SDS011;6087;48.982;12.064;2023-12-04T00:13:44;15.67;;;9.33;;
12052;SDS011;6087;48.982;12.064;2023-12-04T00:16:11;13.83;;;8.60;;
12052;SDS011;6087;48.982;12.064;2023-12-04T00:18:38;13.13;;;8.20;;
12052;SDS011;6087;48.982;12.064;2023-12-04T00:21:05;12.27;;;8.33;;
12052;SDS011;6087;48.982;12.064;2023-12-04T00:23:33;11.73;;;8.67;;
12052;SDS011;6087;48.982;12.064;2023-12-04T00:26:00;15.53;;;8.37;;
12052;SDS011;6087;48.982;12.064;2023-12-04T00:28:27;16.90;;;8.03;;
12052;SDS011;6087;48.982;12.064;2023-12-04T00:30:55;14.27;;;7.80;;
12052;SDS011;6087;48.982;12.064;2023-12-04T00:33:21;10.13;;;7.73;;
12052;SDS011;6087;48.982;12.064;2023-12-04T00:35:48;17.70;;;8.50;;
12052;SDS011;6087;48.982;12.064;2023-12-04T00:38:17;14.60;;;7.97;;
12052;SDS011;6087;48.982;12.064;2023-12-04T00:40:52;13.07;;;7.63;;
12052;SDS011;6087;48.982;12.064;2023-12-04T00:43:19;12.47;;;7.80;;
12052;SDS011;6087;48.982;12.064;2023-12-04T00:45:49;11.93;;;7.17;;
12052;SDS011;6087;48.982;12.064;2023-12-04T00:48:25;12.53;;;8.13;;
12052;SDS011;6087;48.982;12.064;2023-12-04T00:50:52;12.03;;;7.97;;
12052;SDS011;6087;48.982;12.064;2023-12-04T00:53:19;13.23;;;8.40;;
12052;SDS011;6087;48.982;12.064;2023-12-04T00:55:46;12.37;;;7.93;;
12052;SDS011;6087;48.982;12.064;2023-12-04T00:58:14;10.03;;;6.87;;
12052;SDS011;6087;48.982;12.064;2023-12-04T01:00:41;12.87;;;7.87;;
12052;SDS011;6087;48.982;12.064;2023-12-04T01:03:13;12.93;;;6.93;;
12052;SDS011;6087;48.982;12.064;2023-12-04T01:05:43;10.43;;;7.93;;
12052;SDS011;6087;48.982;12.064;2023-12-04T01:08:10;13.77;;;8.93;;
12052;SDS011;6087;48.982;12.064;2023-12-04T01:10:38;8.57;;;7.13;;
12052;SDS011;6087;48.982;12.064;2023-12-04T01:13:05;12.80;;;7.50;;
12052;SDS011;6087;48.982;12.064;2023-12-04T01:15:34;12.93;;;8.03;;
12052;SDS011;6087;48.982;12.064;2023-12-04T01:18:01;13.83;;;8.57;;
12052;SDS011;6087;48.982;12.064;2023-12-04T01:20:28;14.93;;;8.53;;
12052;SDS011;6087;48.982;12.064;2023-12-04T01:22:55;11.97;;;7.43;;
12052;SDS011;6087;48.982;12.064;2023-12-04T01:25:22;11.13;;;7.57;;
12052;SDS011;6087;48.982;12.064;2023-12-04T01:27:49;16.50;;;8.70;;
12052;SDS011;6087;48.982;12.064;2023-12-04T01:30:16;10.67;;;7.03;;
12052;SDS011;6087;48.982;12.064;2023-12-04T01:32:45;9.83;;;7.37;;
12052;SDS011;6087;48.982;12.064;2023-12-04T01:35:12;11.83;;;7.90;;
12052;SDS011;6087;48.982;12.064;2023-12-04T01:37:39;9.80;;;6.87;;
12052;SDS011;6087;48.982;12.064;2023-12-04T01:40:06;12.40;;;7.87;;
12052;SDS011;6087;48.982;12.064;2023-12-04T01:42:34;16.87;;;10.43;;
12052;SDS011;6087;48.982;12.064;2023-12-04T01:45:01;12.00;;;7.50;;
12052;SDS011;6087;48.982;12.064;2023-12-04T01:47:28;12.13;;;7.57;;
12052;SDS011;6087;48.982;12.064;2023-12-04T01:49:56;15.13;;;9.67;;
12052;SDS011;6087;48.982;12.064;2023-12-04T01:52:23;12.27;;;7.63;;
12052;SDS011;6087;48.982;12.064;2023-12-04T01:54:50;10.83;;;7.67;;
12052;SDS011;6087;48.982;12.064;2023-12-04T01:57:18;13.20;;;7.20;;
12052;SDS011;6087;48.982;12.064;2023-12-04T01:59:45;13.63;;;7.30;;
12052;SDS011;6087;48.982;12.064;2023-12-04T02:02:12;11.63;;;7.97;;
12052;SDS011;6087;48.982;12.064;2023-12-04T02:04:39;11.20;;;7.50;;
12052;SDS011;6087;48.982;12.064;2023-12-04T02:07:08;13.10;;;7.73;;
12052;SDS011;6087;48.982;12.064;2023-12-04T02:09:35;12.27;;;7.57;;
12052;SDS011;6087;48.982;12.064;2023-12-04T02:12:03;13.27;;;8.27;;
12052;SDS011;6087;48.982;12.064;2023-12-04T02:14:31;10.50;;;7.40;;
12052;SDS011;6087;48.982;12.064;2023-12-04T02:16:58;9.07;;;6.17;;
12052;SDS011;6087;48.982;12.064;2023-12-04T02:19:28;13.53;;;7.60;;
12052;SDS011;6087;48.982;12.064;2023-12-04T02:21:55;13.97;;;7.00;;
12052;SDS011;6087;48.982;12.064;2023-12-04T02:24:23;11.73;;;7.93;;
12052;SDS011;6087;48.982;12.064;2023-12-04T02:26:52;9.30;;;7.47;;
12052;SDS011;6087;48.982;12.064;2023-12-04T02:29:22;12.33;;;8.87;;
12052;SDS011;6087;48.982;12.064;2023-12-04T02:31:54;11.57;;;7.40;;
12052;SDS011;6087;48.982;12.064;2023-12-04T02:34:24;13.07;;;7.70;;
12052;SDS011;6087;48.982;12.064;2023-12-04T02:36:55;16.77;;;9.43;;
12052;SDS011;6087;48.982;12.064;2023-12-04T02:39:25;15.67;;;9.20;;
12052;SDS011;6087;48.982;12.064;2023-12-04T02:41:53;15.83;;;8.53;;
12052;SDS011;6087;48.982;12.064;2023-12-04T02:44:20;12.43;;;8.30;;
12052;SDS011;6087;48.982;12.064;2023-12-04T02:46:47;13.67;;;9.00;;
12052;SDS011;6087;48.982;12.064;2023-12-04T02:49:14;14.20;;;9.33;;
12052;SDS011;6087;48.982;12.064;2023-12-04T02:51:41;15.43;;;8.97;;
12052;SDS011;6087;48.982;12.064;2023-12-04T02:54:08;17.70;;;9.20;;
12052;SDS011;6087;48.982;12.064;2023-12-04T02:56:36;17.77;;;10.70;;
12052;SDS011;6087;48.982;12.064;2023-12-04T02:59:03;16.57;;;9.00;;
12052;SDS011;6087;48.982;12.064;2023-12-04T03:01:30;14.60;;;8.17;;
12052;SDS011;6087;48.982;12.064;2023-12-04T03:03:57;12.20;;;8.43;;
12052;SDS011;6087;48.982;12.064;2023-12-04T03:06:24;14.90;;;9.00;;
12052;SDS011;6087;48.982;12.064;2023-12-04T03:08:51;16.97;;;8.93;;
12052;SDS011;6087;48.982;12.064;2023-12-04T03:11:18;12.17;;;8.23;;
12052;SDS011;6087;48.982;12.064;2023-12-04T03:13:46;12.83;;;7.27;;
12052;SDS011;6087;48.982;12.064;2023-12-04T03:16:16;13.40;;;8.77;;
12052;SDS011;6087;48.982;12.064;2023-12-04T03:18:44;16.83;;;8.00;;
12052;SDS011;6087;48.982;12.064;2023-12-04T03:21:11;15.23;;;9.00;;
12052;SDS011;6087;48.982;12.064;2023-12-04T03:23:38;18.57;;;10.27;;
12052;SDS011;6087;48.982;12.064;2023-12-04T03:26:08;17.50;;;9.57;;
12052;SDS011;6087;48.982;12.064;2023-12-04T03:28:35;15.07;;;9.80;;
12052;SDS011;6087;48.982;12.064;2023-12-04T03:31:08;15.57;;;8.93;;
12052;SDS011;6087;48.982;12.064;2023-12-04T03:33:35;13.43;;;8.90;;
12052;SDS011;6087;48.982;12.064;2023-12-04T03:36:02;14.57;;;8.07;;
12052;SDS011;6087;48.982;12.064;2023-12-04T03:38:29;15.07;;;8.60;;
12052;SDS011;6087;48.982;12.064;2023-12-04T03:40:57;16.63;;;9.70;;
12052;SDS011;6087;48.982;12.064;2023-12-04T03:43:25;16.00;;;9.53;;
12052;SDS011;6087;48.982;12.064;2023-12-04T03:45:55;15.57;;;9.07;;
12052;SDS011;6087;48.982;12.064;2023-12-04T03:48:23;16.67;;;8.73;;
12052;SDS011;6087;48.982;12.064;2023-12-04T03:50:49;17.83;;;11.17;;
12052;SDS011;6087;48.982;12.064;2023-12-04T03:53:16;16.33;;;9.97;;
12052;SDS011;6087;48.982;12.064;2023-12-04T03:55:43;13.37;;;8.23;;
12052;SDS011;6087;48.982;12.064;2023-12-04T03:58:10;17.47;;;10.07;;
12052;SDS011;6087;48.982;12.064;2023-12-04T04:00:37;17.13;;;9.63;;
12052;SDS011;6087;48.982;12.064;2023-12-04T04:03:06;17.30;;;10.23;;
12052;SDS011;6087;48.982;12.064;2023-12-04T04:05:35;18.80;;;10.17;;
12052;SDS011;6087;48.982;12.064;2023-12-04T04:08:02;19.60;;;9.63;;
12052;SDS011;6087;48.982;12.064;2023-12-04T04:10:32;16.60;;;8.67;;
12052;SDS011;6087;48.982;12.064;2023-12-04T04:12:59;18.23;;;9.00;;
12052;SDS011;6087;48.982;12.064;2023-12-04T04:15:26;17.30;;;10.50;;
12052;SDS011;6087;48.982;12.064;2023-12-04T04:17:53;17.73;;;9.47;;
12052;SDS011;6087;48.982;12.064;2023-12-04T04:20:20;14.13;;;8.00;;
12052;SDS011;6087;48.982;12.064;2023-12-04T04:22:49;16.73;;;9.37;;
12052;SDS011;6087;48.982;12.064;2023-12-04T04:25:17;15.60;;;8.20;;
12052;SDS011;6087;48.982;12.064;2023-12-04T04:27:44;16.37;;;10.00;;
12052;SDS011;6087;48.982;12.064;2023-12-04T04:30:11;13.60;;;10.30;;
12052;SDS011;6087;48.982;12.064;2023-12-04T04:32:39;15.67;;;9.33;;
12052;SDS011;6087;48.982;12.064;2023-12-04T04:35:06;16.80;;;8.67;;
12052;SDS011;6087;48.982;12.064;2023-12-04T04:37:34;14.07;;;8.63;;
12052;SDS011;6087;48.982;12.064;2023-12-04T04:40:03;17.83;;;9.97;;
12052;SDS011;6087;48.982;12.064;2023-12-04T04:42:31;18.60;;;10.13;;
12052;SDS011;6087;48.982;12.064;2023-12-04T04:44:58;15.93;;;10.37;;
12052;SDS011;6087;48.982;12.064;2023-12-04T04:47:25;13.50;;;8.53;;
12052;SDS011;6087;48.982;12.064;2023-12-04T04:49:52;15.50;;;10.53;;
12052;SDS011;6087;48.982;12.064;2023-12-04T04:52:19;17.73;;;9.57;;
12052;SDS011;6087;48.982;12.064;2023-12-04T04:54:51;14.50;;;8.97;;
12052;SDS011;6087;48.982;12.064;2023-12-04T04:57:20;15.67;;;9.57;;
12052;SDS011;6087;48.982;12.064;2023-12-04T04:59:47;15.63;;;9.03;;
12052;SDS011;6087;48.982;12.064;2023-12-04T05:02:13;14.27;;;7.90;;
12052;SDS011;6087;48.982;12.064;2023-12-04T05:04:40;15.20;;;9.20;;
12052;SDS011;6087;48.982;12.064;2023-12-04T05:07:07;12.27;;;8.60;;
12052;SDS011;6087;48.982;12.064;2023-12-04T05:09:35;18.80;;;10.40;;
12052;SDS011;6087;48.982;12.064;2023-12-04T05:12:02;16.90;;;10.23;;
12052;SDS011;6087;48.982;12.064;2023-12-04T05:14:31;16.43;;;10.20;;
12052;SDS011;6087;48.982;12.064;2023-12-04T05:16:58;16.33;;;9.63;;
12052;SDS011;6087;48.982;12.064;2023-12-04T05:19:25;20.37;;;10.73;;
12052;SDS011;6087;48.982;12.064;2023-12-04T05:21:52;13.80;;;9.03;;
12052;SDS011;6087;48.982;12.064;2023-12-04T05:24:19;18.53;;;9.97;;
12052;SDS011;6087;48.982;12.064;2023-12-04T05:26:46;15.03;;;9.70;;
12052;SDS011;6087;48.982;12.064;2023-12-04T05:29:13;17.23;;;9.60;;
12052;SDS011;6087;48.982;12.064;2023-12-04T05:31:41;16.87;;;9.80;;
12052;SDS011;6087;48.982;12.064;2023-12-04T05:34:08;17.23;;;10.27;;
12052;SDS011;6087;48.982;12.064;2023-12-04T05:36:35;17.10;;;8.47;;
12052;SDS011;6087;48.982;12.064;2023-12-04T05:39:02;15.13;;;9.80;;
12052;SDS011;6087;48.982;12.064;2023-12-04T05:41:29;15.77;;;10.17;;
12052;SDS011;6087;48.982;12.064;2023-12-04T05:43:57;14.07;;;8.47;;
12052;SDS011;6087;48.982;12.064;2023-12-04T05:46:23;14.07;;;9.20;;
12052;SDS011;6087;48.982;12.064;2023-12-04T05:48:52;15.37;;;10.10;;
12052;SDS011;6087;48.982;12.064;2023-12-04T05:51:19;18.37;;;8.87;;
12052;SDS011;6087;48.982;12.064;2023-12-04T05:53:47;13.67;;;9.27;;
12052;SDS011;6087;48.982;12.064;2023-12-04T05:56:14;13.13;;;8.80;;
12052;SDS011;6087;48.982;12.064;2023-12-04T05:58:41;14.33;;;8.87;;
12052;SDS011;6087;48.982;12.064;2023-12-04T06:01:09;12.60;;;8.20;;
12052;SDS011;6087;48.982;12.064;2023-12-04T06:03:39;14.03;;;9.30;;
12052;SDS011;6087;48.982;12.064;2023-12-04T06:06:07;12.87;;;8.80;;
12052;SDS011;6087;48.982;12.064;2023-12-04T06:08:34;17.03;;;9.57;;
12052;SDS011;6087;48.982;12.064;2023-12-04T06:11:01;12.60;;;8.43;;
12052;SDS011;6087;48.982;12.064;2023-12-04T06:13:29;15.90;;;9.03;;
12052;SDS011;6087;48.982;12.064;2023-12-04T06:15:58;13.40;;;8.60;;
12052;SDS011;6087;48.982;12.064;2023-12-04T06:18:25;16.07;;;9.27;;
12052;SDS011;6087;48.982;12.064;2023-12-04T06:20:55;15.50;;;9.13;;
12052;SDS011;6087;48.982;12.064;2023-12-04T06:23:24;15.17;;;8.63;;
12052;SDS011;6087;48.982;12.064;2023-12-04T06:25:51;15.77;;;8.40;;
12052;SDS011;6087;48.982;12.064;2023-12-04T06:28:19;14.50;;;7.93;;
12052;SDS011;6087;48.982;12.064;2023-12-04T06:30:51;11.80;;;8.43;;
12052;SDS011;6087;48.982;12.064;2023-12-04T06:33:19;18.43;;;9.77;;
12052;SDS011;6087;48.982;12.064;2023-12-04T06:35:50;13.13;;;8.87;;
12052;SDS011;6087;48.982;12.064;2023-12-04T06:38:17;11.73;;;8.47;;
12052;SDS011;6087;48.982;12.064;2023-12-04T06:40:49;16.73;;;9.03;;
12052;SDS011;6087;48.982;12.064;2023-12-04T06:43:20;15.50;;;8.60;;
12052;SDS011;6087;48.982;12.064;2023-12-04T06:45:47;15.63;;;8.40;;
12052;SDS011;6087;48.982;12.064;2023-12-04T06:48:18;12.97;;;8.03;;
12052;SDS011;6087;48.982;12.064;2023-12-04T06:50:45;14.50;;;8.50;;
12052;SDS011;6087;48.982;12.064;2023-12-04T06:53:12;12.93;;;6.97;;
12052;SDS011;6087;48.982;12.064;2023-12-04T06:55:39;13.03;;;7.93;;
12052;SDS011;6087;48.982;12.064;2023-12-04T06:58:08;12.30;;;7.60;;
12052;SDS011;6087;48.982;12.064;2023-12-04T07:00:35;13.70;;;8.90;;
12052;SDS011;6087;48.982;12.064;2023-12-04T07:03:02;11.43;;;8.23;;
12052;SDS011;6087;48.982;12.064;2023-12-04T07:05:29;12.47;;;7.43;;
12052;SDS011;6087;48.982;12.064;2023-12-04T07:07:56;15.97;;;9.03;;
12052;SDS011;6087;48.982;12.064;2023-12-04T07:10:23;15.50;;;9.60;;
12052;SDS011;6087;48.982;12.064;2023-12-04T07:12:50;15.20;;;8.70;;
12052;SDS011;6087;48.982;12.064;2023-12-04T07:15:18;15.97;;;8.97;;
12052;SDS011;6087;48.982;12.064;2023-12-04T07:17:48;12.20;;;7.97;;
12052;SDS011;6087;48.982;12.064;2023-12-04T07:20:15;14.67;;;9.23;;
12052;SDS011;6087;48.982;12.064;2023-12-04T07:22:42;13.87;;;8.73;;
12052;SDS011;6087;48.982;12.064;2023-12-04T07:25:09;15.83;;;9.63;;
12052;SDS011;6087;48.982;12.064;2023-12-04T07:27:36;16.93;;;8.47;;
12052;SDS011;6087;48.982;12.064;2023-12-04T07:30:04;16.40;;;9.33;;
12052;SDS011;6087;48.982;12.064;2023-12-04T07:32:33;16.03;;;9.70;;
12052;SDS011;6087;48.982;12.064;2023-12-04T07:35:00;12.60;;;8.50;;
12052;SDS011;6087;48.982;12.064;2023-12-04T07:37:27;14.83;;;9.37;;
12052;SDS011;6087;48.982;12.064;2023-12-04T07:39:56;16.63;;;9.27;;
12052;SDS011;6087;48.982;12.064;2023-12-04T07:42:23;11.30;;;8.20;;
12052;SDS011;6087;48.982;12.064;2023-12-04T07:44:50;17.43;;;9.10;;
12052;SDS011;6087;48.982;12.064;2023-12-04T07:47:20;16.30;;;8.27;;
12052;SDS011;6087;48.982;12.064;2023-12-04T07:49:49;15.93;;;8.73;;
12052;SDS011;6087;48.982;12.064;2023-12-04T07:52:16;13.37;;;8.30;;
12052;SDS011;6087;48.982;12.064;2023-12-04T07:54:44;12.93;;;9.03;;
12052;SDS011;6087;48.982;12.064;2023-12-04T07:57:10;12.77;;;8.00;;
12052;SDS011;6087;48.982;12.064;2023-12-04T07:59:37;13.80;;;8.83;;
12052;SDS011;6087;48.982;12.064;2023-12-04T08:02:05;18.30;;;9.10;;
12052;SDS011;6087;48.982;12.064;2023-12-04T08:04:37;16.07;;;9.60;;
12052;SDS011;6087;48.982;12.064;2023-12-04T08:07:09;14.03;;;9.10;;
12052;SDS011;6087;48.982;12.064;2023-12-04T08:09:36;12.17;;;8.33;;
12052;SDS011;6087;48.982;12.064;2023-12-04T08:12:03;15.80;;;9.60;;
12052;SDS011;6087;48.982;12.064;2023-12-04T08:14:30;13.73;;;8.27;;
12052;SDS011;6087;48.982;12.064;2023-12-04T08:16:57;14.47;;;7.63;;
12052;SDS011;6087;48.982;12.064;2023-12-04T08:19:24;17.23;;;8.93;;
12052;SDS011;6087;48.982;12.064;2023-12-04T08:21:51;18.93;;;8.87;;
12052;SDS011;6087;48.982;12.064;2023-12-04T08:24:20;16.03;;;8.70;;
12052;SDS011;6087;48.982;12.064;2023-12-04T08:26:47;16.57;;;9.63;;
12052;SDS011;6087;48.982;12.064;2023-12-04T08:29:15;18.13;;;9.20;;
12052;SDS011;6087;48.982;12.064;2023-12-04T08:31:43;17.87;;;9.80;;
12052;SDS011;6087;48.982;12.064;2023-12-04T08:34:10;15.23;;;8.20;;
12052;SDS011;6087;48.982;12.064;2023-12-04T08:36:37;17.30;;;10.07;;
12052;SDS011;6087;48.982;12.064;2023-12-04T08:39:04;13.50;;;8.57;;
12052;SDS011;6087;48.982;12.064;2023-12-04T08:41:32;16.07;;;9.67;;
12052;SDS011;6087;48.982;12.064;2023-12-04T08:43:59;15.67;;;8.70;;
12052;SDS011;6087;48.982;12.064;2023-12-04T08:46:26;15.40;;;8.93;;
12052;SDS011;6087;48.982;12.064;2023-12-04T08:48:56;15.80;;;9.17;;
12052;SDS011;6087;48.982;12.064;2023-12-04T08:51:23;13.20;;;8.63;;
12052;SDS011;6087;48.982;12.064;2023-12-04T08:53:50;12.50;;;9.13;;
12052;SDS011;6087;48.982;12.064;2023-12-04T08:56:19;18.10;;;9.50;;
12052;SDS011;6087;48.982;12.064;2023-12-04T08:58:47;16.13;;;9.80;;
12052;SDS011;6087;48.982;12.064;2023-12-04T09:01:15;18.00;;;11.10;;
12052;SDS011;6087;48.982;12.064;2023-12-04T09:03:42;16.27;;;9.93;;
12052;SDS011;6087;48.982;12.064;2023-12-04T09:06:09;16.23;;;8.13;;
12052;SDS011;6087;48.982;12.064;2023-12-04T09:08:36;16.63;;;9.43;;
12052;SDS011;6087;48.982;12.064;2023-12-04T09:11:03;15.63;;;9.43;;
12052;SDS011;6087;48.982;12.064;2023-12-04T09:13:30;14.33;;;9.03;;
12052;SDS011;6087;48.982;12.064;2023-12-04T09:16:00;14.80;;;8.30;;
12052;SDS011;6087;48.982;12.064;2023-12-04T09:18:28;17.07;;;8.67;;
12052;SDS011;6087;48.982;12.064;2023-12-04T09:20:55;15.53;;;9.43;;
12052;SDS011;6087;48.982;12.064;2023-12-04T09:23:22;14.40;;;9.03;;
12052;SDS011;6087;48.982;12.064;2023-12-04T09:25:49;11.93;;;8.63;;
12052;SDS011;6087;48.982;12.064;2023-12-04T09:28:18;14.87;;;9.33;;
12052;SDS011;6087;48.982;12.064;2023-12-04T09:30:45;15.07;;;9.33;;
12052;SDS011;6087;48.982;12.064;2023-12-04T09:33:13;16.87;;;9.30;;
12052;SDS011;6087;48.982;12.064;2023-12-04T09:35:41;15.53;;;9.67;;
12052;SDS011;6087;48.982;12.064;2023-12-04T09:38:08;17.30;;;10.13;;
12052;SDS011;6087;48.982;12.064;2023-12-04T09:40:35;16.57;;;9.60;;
12052;SDS011;6087;48.982;12.064;2023-12-04T09:43:03;14.83;;;9.90;;
12052;SDS011;6087;48.982;12.064;2023-12-04T09:45:32;16.40;;;9.93;;
12052;SDS011;6087;48.982;12.064;2023-12-04T09:47:59;15.60;;;9.87;;
12052;SDS011;6087;48.982;12.064;2023-12-04T09:50:28;15.23;;;9.10;;
12052;SDS011;6087;48.982;12.064;2023-12-04T09:52:55;12.10;;;8.70;;
12052;SDS011;6087;48.982;12.064;2023-12-04T09:55:27;18.43;;;9.47;;
12052;SDS011;6087;48.982;12.064;2023-12-04T09:57:54;13.60;;;8.43;;
12052;SDS011;6087;48.982;12.064;2023-12-04T10:00:22;16.00;;;9.83;;
12052;SDS011;6087;48.982;12.064;2023-12-04T10:02:50;17.97;;;10.23;;
12052;SDS011;6087;48.982;12.064;2023-12-04T10:05:18;15.70;;;9.07;;
12052;SDS011;6087;48.982;12.064;2023-12-04T10:07:47;16.03;;;9.40;;
12052;SDS011;6087;48.982;12.064;2023-12-04T10:10:14;16.57;;;10.07;;
12052;SDS011;6087;48.982;12.064;2023-12-04T10:12:42;15.63;;;10.17;;
12052;SDS011;6087;48.982;12.064;2023-12-04T10:15:10;17.67;;;10.10;;
12052;SDS011;6087;48.982;12.064;2023-12-04T10:17:38;20.07;;;11.90;;
12052;SDS011;6087;48.982;12.064;2023-12-04T10:20:07;19.30;;;11.33;;
12052;SDS011;6087;48.982;12.064;2023-12-04T10:22:53;16.37;;;10.30;;
12052;SDS011;6087;48.982;12.064;2023-12-04T10:25:21;15.47;;;8.60;;
12052;SDS011;6087;48.982;12.064;2023-12-04T10:27:50;12.57;;;7.97;;
12052;SDS011;6087;48.982;12.064;2023-12-04T10:30:22;11.60;;;7.00;;
12052;SDS011;6087;48.982;12.064;2023-12-04T10:32:53;14.03;;;9.40;;
12052;SDS011;6087;48.982;12.064;2023-12-04T10:35:21;22.63;;;10.17;;
12052;SDS011;6087;48.982;12.064;2023-12-04T10:37:48;14.53;;;8.93;;
12052;SDS011;6087;48.982;12.064;2023-12-04T10:40:24;15.43;;;9.40;;
12052;SDS011;6087;48.982;12.064;2023-12-04T10:42:57;15.17;;;9.53;;
12052;SDS011;6087;48.982;12.064;2023-12-04T10:45:37;14.73;;;10.07;;
12052;SDS011;6087;48.982;12.064;2023-12-04T10:48:08;17.93;;;11.17;;
12052;SDS011;6087;48.982;12.064;2023-12-04T10:50:36;16.77;;;9.50;;
12052;SDS011;6087;48.982;12.064;2023-12-04T10:53:05;15.07;;;10.43;;
12052;SDS011;6087;48.982;12.064;2023-12-04T10:55:33;19.10;;;11.13;;
12052;SDS011;6087;48.982;12.064;2023-12-04T10:58:01;18.00;;;10.70;;
12052;SDS011;6087;48.982;12.064;2023-12-04T11:00:30;19.13;;;10.37;;
12052;SDS011;6087;48.982;12.064;2023-12-04T11:03:01;18.20;;;10.73;;
12052;SDS011;6087;48.982;12.064;2023-12-04T11:05:31;15.07;;;9.73;;
12052;SDS011;6087;48.982;12.064;2023-12-04T11:08:13;18.13;;;9.57;;
12052;SDS011;6087;48.982;12.064;2023-12-04T11:10:48;18.53;;;10.30;;
12052;SDS011;6087;48.982;12.064;2023-12-04T11:13:21;15.77;;;9.53;;
12052;SDS011;6087;48.982;12.064;2023-12-04T11:15:53;17.57;;;10.83;;
12052;SDS011;6087;48.982;12.064;2023-12-04T11:18:25;16.17;;;10.50;;
12052;SDS011;6087;48.982;12.064;2023-12-04T11:20:56;16.30;;;10.47;;
12052;SDS011;6087;48.982;12.064;2023-12-04T11:23:26;14.40;;;9.60;;
12052;SDS011;6087;48.982;12.064;2023-12-04T11:25:54;17.50;;;8.73;;
12052;SDS011;6087;48.982;12.064;2023-12-04T11:28:22;18.17;;;9.33;;
12052;SDS011;6087;48.982;12.064;2023-12-04T11:30:51;17.27;;;10.13;;
12052;SDS011;6087;48.982;12.064;2023-12-04T11:33:18;18.20;;;10.07;;
12052;SDS011;6087;48.982;12.064;2023-12-04T11:35:49;21.57;;;11.13;;
12052;SDS011;6087;48.982;12.064;2023-12-04T11:38:17;23.90;;;11.53;;
12052;SDS011;6087;48.982;12.064;2023-12-04T11:40:47;16.20;;;9.13;;
12052;SDS011;6087;48.982;12.064;2023-12-04T11:43:24;21.23;;;10.17;;
12052;SDS011;6087;48.982;12.064;2023-12-04T11:45:51;31.70;;;15.10;;
12052;SDS011;6087;48.982;12.064;2023-12-04T11:48:22;33.07;;;14.57;;
12052;SDS011;6087;48.982;12.064;2023-12-04T11:50:49;18.07;;;10.23;;
12052;SDS011;6087;48.982;12.064;2023-12-04T11:53:17;15.30;;;10.07;;
12052;SDS011;6087;48.982;12.064;2023-12-04T11:55:44;19.37;;;10.20;;
12052;SDS011;6087;48.982;12.064;2023-12-04T11:58:15;15.00;;;8.30;;
12052;SDS011;6087;48.982;12.064;2023-12-04T12:00:42;16.87;;;8.70;;
12052;SDS011;6087;48.982;12.064;2023-12-04T12:03:13;12.10;;;8.40;;
12052;SDS011;6087;48.982;12.064;2023-12-04T12:05:41;14.47;;;8.97;;
12052;SDS011;6087;48.982;12.064;2023-12-04T12:08:11;14.20;;;8.97;;
12052;SDS011;6087;48.982;12.064;2023-12-04T12:10:38;16.93;;;8.83;;
12052;SDS011;6087;48.982;12.064;2023-12-04T12:13:06;17.57;;;9.50;;
12052;SDS011;6087;48.982;12.064;2023-12-04T12:15:33;16.37;;;9.90;;
12052;SDS011;6087;48.982;12.064;2023-12-04T12:18:00;15.80;;;9.47;;
12052;SDS011;6087;48.982;12.064;2023-12-04T12:20:29;15.73;;;8.67;;
12052;SDS011;6087;48.982;12.064;2023-12-04T12:22:56;15.67;;;9.20;;
12052;SDS011;6087;48.982;12.064;2023-12-04T12:25:23;21.10;;;11.40;;
12052;SDS011;6087;48.982;12.064;2023-12-04T12:27:51;15.47;;;9.43;;
12052;SDS011;6087;48.982;12.064;2023-12-04T12:30:19;12.50;;;8.07;;
12052;SDS011;6087;48.982;12.064;2023-12-04T12:32:47;12.30;;;8.30;;
12052;SDS011;6087;48.982;12.064;2023-12-04T12:35:13;14.03;;;8.93;;
12052;SDS011;6087;48.982;12.064;2023-12-04T12:37:40;16.07;;;8.90;;
12052;SDS011;6087;48.982;12.064;2023-12-04T12:40:09;14.67;;;8.50;;
12052;SDS011;6087;48.982;12.064;2023-12-04T12:42:39;12.73;;;7.93;;
12052;SDS011;6087;48.982;12.064;2023-12-04T12:45:08;11.37;;;7.30;;
12052;SDS011;6087;48.982;12.064;2023-12-04T12:47:39;13.43;;;7.87;;
12052;SDS011;6087;48.982;12.064;2023-12-04T12:50:07;11.80;;;6.93;;
12052;SDS011;6087;48.982;12.064;2023-12-04T12:52:37;16.37;;;8.10;;
12052;SDS011;6087;48.982;12.064;2023-12-04T12:55:04;16.67;;;8.43;;
12052;SDS011;6087;48.982;12.064;2023-12-04T12:57:31;12.33;;;7.67;;
12052;SDS011;6087;48.982;12.064;2023-12-04T12:59:59;12.07;;;7.10;;
12052;SDS011;6087;48.982;12.064;2023-12-04T13:02:33;11.13;;;6.37;;
12052;SDS011;6087;48.982;12.064;2023-12-04T13:05:02;11.10;;;6.73;;
12052;SDS011;6087;48.982;12.064;2023-12-04T13:07:30;12.70;;;8.23;;
12052;SDS011;6087;48.982;12.064;2023-12-04T13:09:57;9.80;;;6.87;;
12052;SDS011;6087;48.982;12.064;2023-12-04T13:12:24;9.03;;;6.80;;
12052;SDS011;6087;48.982;12.064;2023-12-04T13:14:51;11.10;;;6.53;;
12052;SDS011;6087;48.982;12.064;2023-12-04T13:17:18;13.07;;;6.80;;
12052;SDS011;6087;48.982;12.064;2023-12-04T13:19:48;12.33;;;7.20;;
12052;SDS011;6087;48.982;12.064;2023-12-04T13:22:19;10.10;;;6.27;;
12052;SDS011;6087;48.982;12.064;2023-12-04T13:24:46;8.87;;;5.70;;
12052;SDS011;6087;48.982;12.064;2023-12-04T13:27:16;8.57;;;5.13;;
12052;SDS011;6087;48.982;12.064;2023-12-04T13:29:43;10.70;;;6.83;;
12052;SDS011;6087;48.982;12.064;2023-12-04T13:32:23;7.07;;;5.90;;
12052;SDS011;6087;48.982;12.064;2023-12-04T13:34:50;9.17;;;6.10;;
12052;SDS011;6087;48.982;12.064;2023-12-04T13:37:21;10.73;;;6.13;;
12052;SDS011;6087;48.982;12.064;2023-12-04T13:39:48;8.73;;;5.93;;
12052;SDS011;6087;48.982;12.064;2023-12-04T13:42:22;12.37;;;5.93;;
12052;SDS011;6087;48.982;12.064;2023-12-04T13:45:07;12.50;;;6.23;;
12052;SDS011;6087;48.982;12.064;2023-12-04T13:47:35;13.37;;;7.23;;
12052;SDS011;6087;48.982;12.064;2023-12-04T13:50:03;9.50;;;6.40;;
12052;SDS011;6087;48.982;12.064;2023-12-04T13:52:35;9.67;;;5.80;;
12052;SDS011;6087;48.982;12.064;2023-12-04T13:55:04;12.33;;;6.20;;
12052;SDS011;6087;48.982;12.064;2023-12-04T13:57:39;12.60;;;6.20;;
12052;SDS011;6087;48.982;12.064;2023-12-04T14:00:23;9.47;;;6.40;;
12052;SDS011;6087;48.982;12.064;2023-12-04T14:02:51;9.03;;;5.43;;
12052;SDS011;6087;48.982;12.064;2023-12-04T14:05:18;10.23;;;6.13;;
12052;SDS011;6087;48.982;12.064;2023-12-04T14:07:48;9.53;;;5.73;;
12052;SDS011;6087;48.982;12.064;2023-12-04T14:10:15;7.40;;;5.90;;
12052;SDS011;6087;48.982;12.064;2023-12-04T14:12:42;9.93;;;5.97;;
12052;SDS011;6087;48.982;12.064;2023-12-04T14:15:09;8.73;;;6.00;;
12052;SDS011;6087;48.982;12.064;2023-12-04T14:17:36;11.37;;;7.47;;
12052;SDS011;6087;48.982;12.064;2023-12-04T14:20:05;9.67;;;6.83;;
12052;SDS011;6087;48.982;12.064;2023-12-04T14:22:37;11.53;;;6.63;;
12052;SDS011;6087;48.982;12.064;2023-12-04T14:25:10;11.53;;;7.23;;
12052;SDS011;6087;48.982;12.064;2023-12-04T14:27:37;13.13;;;7.40;;
12052;SDS011;6087;48.982;12.064;2023-12-04T14:30:05;11.17;;;7.73;;
12052;SDS011;6087;48.982;12.064;2023-12-04T14:32:35;12.80;;;7.13;;
12052;SDS011;6087;48.982;12.064;2023-12-04T14:35:05;10.60;;;6.77;;
12052;SDS011;6087;48.982;12.064;2023-12-04T14:37:35;9.63;;;6.00;;
12052;SDS011;6087;48.982;12.064;2023-12-04T14:40:05;15.30;;;6.37;;